RYR7FU LIPH-LATI
Flight info
| Callsign | RYR7FU |
|---|---|
| Flight time | 1h 12m |
| Altitude | 18000 |
| Route | INBUT N503 LAREN Q561 AKADO/N0393F190 L615 TULIK/N0461F330 DCT ROTAR DCT PUL DCT LOS DCT EBITA DCT SPL DCT PETAK |
| Aircraft | B738/M-SDE2E3FGHIRWXY/LB1 |
Departure
| Time | 2026-04-23 17:18 |
|---|---|
| Airport | Treviso Airport (LIPH) |
Arrival
| Time | 2026-04-23 18:31 |
|---|---|
| Airport | Tirana International Airport Mother Teresa (LATI) |
| Time | Latitude | Longitude | Altitude | Speed | Heading |
|---|---|---|---|---|---|
| 2026-04-23 17:02 | 45.65397 | 12.20484 | 61 ft | 0 kts | 339° |
| 2026-04-23 17:14 | 45.65382 | 12.20492 | 55 ft | 4 kts | 339° |
| 2026-04-23 17:14 | 45.65358 | 12.20504 | 53 ft | 3 kts | 347° |
| 2026-04-23 17:14 | 45.65346 | 12.20506 | 55 ft | 2 kts | 15° |
| 2026-04-23 17:14 | 45.65336 | 12.20498 | 58 ft | 2 kts | 56° |
| 2026-04-23 17:15 | 45.65331 | 12.20484 | 56 ft | 2 kts | 65° |
| 2026-04-23 17:15 | 45.65328 | 12.20475 | 58 ft | 0 kts | 66° |
| 2026-04-23 17:16 | 45.65329 | 12.20481 | 56 ft | 3 kts | 71° |
| 2026-04-23 17:16 | 45.65349 | 12.20559 | 55 ft | 14 kts | 68° |
| 2026-04-23 17:17 | 45.65375 | 12.20699 | 61 ft | 12 kts | 105° |
| 2026-04-23 17:17 | 45.65306 | 12.20760 | 61 ft | 12 kts | 159° |
| 2026-04-23 17:17 | 45.65228 | 12.20775 | 57 ft | 12 kts | 198° |
| 2026-04-23 17:17 | 45.65189 | 12.20681 | 56 ft | 11 kts | 250° |
| 2026-04-23 17:18 | 45.64926 | 12.19689 | 54 ft | 122 kts | 249° |
| 2026-04-23 17:18 | 45.64578 | 12.18360 | 285 ft | 159 kts | 248° |
| 2026-04-23 17:18 | 45.64172 | 12.16861 | 1008 ft | 163 kts | 245° |
| 2026-04-23 17:19 | 45.63716 | 12.15348 | 1842 ft | 166 kts | 245° |
| 2026-04-23 17:19 | 45.63211 | 12.13728 | 2321 ft | 195 kts | 245° |
| 2026-04-23 17:19 | 45.62612 | 12.11817 | 2541 ft | 226 kts | 246° |
| 2026-04-23 17:19 | 45.61926 | 12.09655 | 2952 ft | 250 kts | 245° |
| 2026-04-23 17:20 | 45.61199 | 12.07397 | 3723 ft | 257 kts | 245° |
| 2026-04-23 17:20 | 45.59635 | 12.02568 | 5297 ft | 273 kts | 246° |
| 2026-04-23 17:21 | 45.58003 | 11.97544 | 6897 ft | 285 kts | 246° |
| 2026-04-23 17:21 | 45.57163 | 11.94967 | 7717 ft | 288 kts | 247° |
| 2026-04-23 17:21 | 45.55452 | 11.89727 | 9351 ft | 295 kts | 248° |
| 2026-04-23 17:22 | 45.54576 | 11.87049 | 10156 ft | 299 kts | 248° |
| 2026-04-23 17:22 | 45.51530 | 11.82713 | 10787 ft | 347 kts | 197° |
| 2026-04-23 17:23 | 45.46662 | 11.83762 | 11215 ft | 379 kts | 141° |
| 2026-04-23 17:23 | 45.44858 | 11.86470 | 11810 ft | 378 kts | 122° |
| 2026-04-23 17:23 | 45.41231 | 11.91947 | 13228 ft | 390 kts | 137° |
| 2026-04-23 17:24 | 45.39075 | 11.94319 | 13941 ft | 394 kts | 141° |
| 2026-04-23 17:24 | 45.36843 | 11.96623 | 14541 ft | 399 kts | 141° |
| 2026-04-23 17:24 | 45.32328 | 12.01348 | 15715 ft | 407 kts | 140° |
| 2026-04-23 17:25 | 45.29022 | 12.07640 | 16845 ft | 401 kts | 103° |
| 2026-04-23 17:25 | 45.28557 | 12.11526 | 17433 ft | 398 kts | 87° |
| 2026-04-23 17:26 | 45.29302 | 12.18763 | 18465 ft | 401 kts | 76° |
| 2026-04-23 17:26 | 45.30379 | 12.26617 | 19406 ft | 408 kts | 76° |
| 2026-04-23 17:27 | 45.31329 | 12.34635 | 20368 ft | 418 kts | 83° |
| 2026-04-23 17:27 | 45.31254 | 12.38802 | 20816 ft | 426 kts | 92° |
| 2026-04-23 17:27 | 45.30920 | 12.43000 | 21287 ft | 429 kts | 93° |
| 2026-04-23 17:27 | 45.30548 | 12.47226 | 21730 ft | 433 kts | 93° |
| 2026-04-23 17:28 | 45.30174 | 12.51484 | 22157 ft | 437 kts | 93° |
| 2026-04-23 17:28 | 45.29809 | 12.55789 | 22586 ft | 440 kts | 93° |
| 2026-04-23 17:28 | 45.29454 | 12.60119 | 23010 ft | 443 kts | 92° |
| 2026-04-23 17:28 | 45.29105 | 12.64475 | 23438 ft | 446 kts | 92° |
| 2026-04-23 17:29 | 45.28758 | 12.68858 | 23823 ft | 449 kts | 92° |
| 2026-04-23 17:29 | 45.28411 | 12.73218 | 24158 ft | 451 kts | 92° |
| 2026-04-23 17:29 | 45.27697 | 12.82115 | 24848 ft | 456 kts | 93° |
| 2026-04-23 17:30 | 45.27050 | 12.86583 | 25130 ft | 465 kts | 103° |
| 2026-04-23 17:30 | 45.24173 | 12.94925 | 25727 ft | 479 kts | 121° |
| 2026-04-23 17:30 | 45.22267 | 12.98796 | 26042 ft | 481 kts | 122° |
| 2026-04-23 17:31 | 45.20321 | 13.02687 | 26331 ft | 484 kts | 122° |
| 2026-04-23 17:31 | 45.18368 | 13.06589 | 26601 ft | 486 kts | 122° |
| 2026-04-23 17:31 | 45.16414 | 13.10511 | 26878 ft | 488 kts | 122° |
| 2026-04-23 17:31 | 45.14458 | 13.14457 | 27172 ft | 490 kts | 122° |
| 2026-04-23 17:32 | 45.12499 | 13.18430 | 27426 ft | 493 kts | 122° |
| 2026-04-23 17:32 | 45.10533 | 13.22423 | 27703 ft | 495 kts | 122° |
| 2026-04-23 17:32 | 45.08569 | 13.26416 | 28067 ft | 494 kts | 122° |
| 2026-04-23 17:32 | 45.06604 | 13.30405 | 28498 ft | 493 kts | 122° |
| 2026-04-23 17:33 | 45.04646 | 13.34378 | 28874 ft | 492 kts | 122° |
| 2026-04-23 17:33 | 45.02683 | 13.38353 | 29205 ft | 493 kts | 122° |
| 2026-04-23 17:33 | 45.00720 | 13.42324 | 29569 ft | 493 kts | 122° |
| 2026-04-23 17:33 | 44.98783 | 13.46234 | 29972 ft | 492 kts | 122° |
| 2026-04-23 17:34 | 44.96821 | 13.50189 | 30309 ft | 492 kts | 122° |
| 2026-04-23 17:34 | 44.94860 | 13.54136 | 30612 ft | 491 kts | 122° |
| 2026-04-23 17:34 | 44.90940 | 13.62010 | 31315 ft | 488 kts | 122° |
| 2026-04-23 17:35 | 44.88989 | 13.65921 | 31613 ft | 487 kts | 122° |
| 2026-04-23 17:35 | 44.85082 | 13.73738 | 32195 ft | 487 kts | 122° |
| 2026-04-23 17:35 | 44.83132 | 13.77630 | 32535 ft | 485 kts | 122° |
| 2026-04-23 17:36 | 44.81190 | 13.81503 | 32892 ft | 483 kts | 122° |
| 2026-04-23 17:36 | 44.79249 | 13.85366 | 33138 ft | 484 kts | 122° |
| 2026-04-23 17:36 | 44.75338 | 13.93142 | 33134 ft | 487 kts | 122° |
| 2026-04-23 17:37 | 44.71430 | 14.00885 | 33131 ft | 483 kts | 122° |
| 2026-04-23 17:38 | 44.65612 | 14.12373 | 33131 ft | 479 kts | 123° |
| 2026-04-23 17:38 | 44.61746 | 14.19985 | 33136 ft | 478 kts | 123° |
| 2026-04-23 17:39 | 44.57885 | 14.27568 | 33137 ft | 478 kts | 123° |
| 2026-04-23 17:39 | 44.54011 | 14.35155 | 33133 ft | 479 kts | 123° |
| 2026-04-23 17:40 | 44.50128 | 14.42740 | 33137 ft | 480 kts | 123° |
| 2026-04-23 17:40 | 44.46225 | 14.50342 | 33132 ft | 481 kts | 123° |
| 2026-04-23 17:41 | 44.42318 | 14.57933 | 33135 ft | 482 kts | 123° |
| 2026-04-23 17:41 | 44.36425 | 14.69345 | 33132 ft | 483 kts | 123° |
| 2026-04-23 17:42 | 44.30519 | 14.80737 | 33127 ft | 483 kts | 123° |
| 2026-04-23 17:43 | 44.26604 | 14.88264 | 33128 ft | 482 kts | 123° |
| 2026-04-23 17:43 | 44.22663 | 14.95822 | 33128 ft | 481 kts | 123° |
| 2026-04-23 17:44 | 44.18725 | 15.03354 | 32976 ft | 479 kts | 123° |
| 2026-04-23 17:44 | 44.16790 | 15.07043 | 33030 ft | 464 kts | 123° |
| 2026-04-23 17:44 | 44.13032 | 15.14196 | 33121 ft | 456 kts | 123° |
| 2026-04-23 17:45 | 44.07394 | 15.24917 | 33143 ft | 459 kts | 123° |
| 2026-04-23 17:46 | 44.01705 | 15.35688 | 33134 ft | 462 kts | 123° |
| 2026-04-23 17:46 | 43.97889 | 15.42887 | 33135 ft | 463 kts | 123° |
| 2026-04-23 17:47 | 43.94064 | 15.50085 | 33129 ft | 464 kts | 124° |
| 2026-04-23 17:48 | 43.88337 | 15.60830 | 33117 ft | 463 kts | 124° |
| 2026-04-23 17:48 | 43.84512 | 15.67986 | 33113 ft | 462 kts | 124° |
| 2026-04-23 17:49 | 43.80680 | 15.75135 | 33106 ft | 461 kts | 124° |
| 2026-04-23 17:49 | 43.76859 | 15.82248 | 33104 ft | 460 kts | 124° |
| 2026-04-23 17:50 | 43.73043 | 15.89334 | 33100 ft | 459 kts | 124° |
| 2026-04-23 17:50 | 43.67322 | 15.99926 | 33089 ft | 457 kts | 124° |
| 2026-04-23 17:51 | 43.63516 | 16.06951 | 33070 ft | 457 kts | 124° |
| 2026-04-23 17:52 | 43.57797 | 16.17476 | 33087 ft | 457 kts | 124° |
| 2026-04-23 17:52 | 43.52071 | 16.27976 | 33077 ft | 457 kts | 124° |
| 2026-04-23 17:53 | 43.46345 | 16.38438 | 33073 ft | 457 kts | 124° |
| 2026-04-23 17:54 | 43.42512 | 16.45422 | 33075 ft | 457 kts | 124° |
| 2026-04-23 17:54 | 43.37401 | 16.54706 | 33072 ft | 457 kts | 124° |
| 2026-04-23 17:55 | 43.31637 | 16.65144 | 33062 ft | 457 kts | 124° |
| 2026-04-23 17:56 | 43.27781 | 16.72104 | 33063 ft | 457 kts | 124° |
| 2026-04-23 17:56 | 43.21999 | 16.82511 | 33064 ft | 456 kts | 124° |
| 2026-04-23 17:57 | 43.18148 | 16.89421 | 33067 ft | 456 kts | 124° |
| 2026-04-23 17:58 | 43.12401 | 16.99706 | 33069 ft | 455 kts | 124° |
| 2026-04-23 17:58 | 43.08548 | 17.06582 | 33059 ft | 455 kts | 124° |
| 2026-04-23 17:59 | 43.04697 | 17.13436 | 33064 ft | 454 kts | 124° |
| 2026-04-23 17:59 | 43.00846 | 17.20275 | 33069 ft | 454 kts | 124° |
| 2026-04-23 18:00 | 42.96989 | 17.27111 | 33050 ft | 453 kts | 124° |
| 2026-04-23 18:00 | 42.93141 | 17.33911 | 33059 ft | 452 kts | 124° |
| 2026-04-23 18:01 | 42.89302 | 17.40683 | 33066 ft | 451 kts | 124° |
| 2026-04-23 18:01 | 42.85461 | 17.47444 | 33054 ft | 451 kts | 124° |
| 2026-04-23 18:02 | 42.81645 | 17.54145 | 33055 ft | 450 kts | 124° |
| 2026-04-23 18:02 | 42.77804 | 17.60872 | 33054 ft | 450 kts | 124° |
| 2026-04-23 18:03 | 42.73958 | 17.67594 | 33056 ft | 449 kts | 124° |
| 2026-04-23 18:03 | 42.70117 | 17.74293 | 33050 ft | 449 kts | 124° |
| 2026-04-23 18:04 | 42.66277 | 17.80976 | 33049 ft | 448 kts | 124° |
| 2026-04-23 18:04 | 42.62439 | 17.87639 | 33046 ft | 448 kts | 124° |
| 2026-04-23 18:05 | 42.58586 | 17.94312 | 33037 ft | 447 kts | 124° |
| 2026-04-23 18:05 | 42.54770 | 18.00908 | 33032 ft | 447 kts | 124° |
| 2026-04-23 18:06 | 42.50930 | 18.07530 | 33027 ft | 446 kts | 124° |
| 2026-04-23 18:06 | 42.47093 | 18.14132 | 33026 ft | 446 kts | 124° |
| 2026-04-23 18:07 | 42.43255 | 18.20722 | 33024 ft | 445 kts | 124° |
| 2026-04-23 18:07 | 42.39417 | 18.27298 | 33027 ft | 445 kts | 124° |
| 2026-04-23 18:08 | 42.36223 | 18.32757 | 33017 ft | 445 kts | 124° |
| 2026-04-23 18:08 | 42.31736 | 18.40413 | 33016 ft | 444 kts | 124° |
| 2026-04-23 18:08 | 42.29800 | 18.43713 | 32430 ft | 452 kts | 124° |
| 2026-04-23 18:09 | 42.27851 | 18.47030 | 31757 ft | 449 kts | 124° |
| 2026-04-23 18:09 | 42.25800 | 18.50229 | 31044 ft | 453 kts | 131° |
| 2026-04-23 18:09 | 42.23389 | 18.52964 | 30347 ft | 456 kts | 138° |
| 2026-04-23 18:09 | 42.20844 | 18.55552 | 29513 ft | 457 kts | 139° |
| 2026-04-23 18:10 | 42.18289 | 18.58110 | 28569 ft | 458 kts | 139° |
| 2026-04-23 18:10 | 42.15724 | 18.60678 | 27672 ft | 458 kts | 138° |
| 2026-04-23 18:10 | 42.13181 | 18.63240 | 27033 ft | 452 kts | 138° |
| 2026-04-23 18:10 | 42.10688 | 18.65763 | 26485 ft | 445 kts | 138° |
| 2026-04-23 18:11 | 42.08235 | 18.68259 | 25911 ft | 439 kts | 138° |
| 2026-04-23 18:11 | 42.05845 | 18.70697 | 25309 ft | 434 kts | 137° |
| 2026-04-23 18:11 | 42.03450 | 18.73144 | 24703 ft | 430 kts | 137° |
| 2026-04-23 18:11 | 42.01082 | 18.75564 | 24127 ft | 426 kts | 137° |
| 2026-04-23 18:12 | 41.98736 | 18.77959 | 23568 ft | 421 kts | 137° |
| 2026-04-23 18:12 | 41.96418 | 18.80323 | 22879 ft | 417 kts | 137° |
| 2026-04-23 18:12 | 41.94113 | 18.82672 | 22180 ft | 414 kts | 137° |
| 2026-04-23 18:12 | 41.91819 | 18.85008 | 21479 ft | 412 kts | 137° |
| 2026-04-23 18:13 | 41.89539 | 18.87327 | 20801 ft | 410 kts | 138° |
| 2026-04-23 18:13 | 41.87271 | 18.89631 | 20140 ft | 408 kts | 138° |
| 2026-04-23 18:13 | 41.85010 | 18.91925 | 19507 ft | 406 kts | 138° |
| 2026-04-23 18:13 | 41.82766 | 18.94199 | 18887 ft | 404 kts | 138° |
| 2026-04-23 18:14 | 41.80528 | 18.96465 | 18270 ft | 402 kts | 138° |
| 2026-04-23 18:14 | 41.78304 | 18.98716 | 17596 ft | 400 kts | 139° |
| 2026-04-23 18:14 | 41.76103 | 19.00939 | 16930 ft | 391 kts | 139° |
| 2026-04-23 18:14 | 41.73946 | 19.03116 | 15963 ft | 387 kts | 139° |
| 2026-04-23 18:15 | 41.71799 | 19.05283 | 15099 ft | 383 kts | 139° |
| 2026-04-23 18:15 | 41.69711 | 19.07385 | 14556 ft | 371 kts | 139° |
| 2026-04-23 18:15 | 41.67679 | 19.09429 | 14034 ft | 360 kts | 139° |
| 2026-04-23 18:15 | 41.65692 | 19.11429 | 13509 ft | 354 kts | 139° |
| 2026-04-23 18:16 | 41.63743 | 19.13389 | 12960 ft | 348 kts | 139° |
| 2026-04-23 18:16 | 41.61795 | 19.15347 | 12461 ft | 355 kts | 139° |
| 2026-04-23 18:16 | 41.59771 | 19.17387 | 12097 ft | 369 kts | 138° |
| 2026-04-23 18:17 | 41.55735 | 19.21439 | 12011 ft | 347 kts | 139° |
| 2026-04-23 18:17 | 41.53861 | 19.23311 | 12004 ft | 327 kts | 140° |
| 2026-04-23 18:17 | 41.52074 | 19.25095 | 12009 ft | 313 kts | 138° |
| 2026-04-23 18:17 | 41.50380 | 19.26782 | 11995 ft | 295 kts | 140° |
| 2026-04-23 18:18 | 41.48743 | 19.28416 | 11320 ft | 298 kts | 139° |
| 2026-04-23 18:18 | 41.47052 | 19.30114 | 10472 ft | 309 kts | 139° |
| 2026-04-23 18:18 | 41.45369 | 19.31800 | 10266 ft | 295 kts | 140° |
| 2026-04-23 18:18 | 41.43759 | 19.33404 | 10074 ft | 281 kts | 140° |
| 2026-04-23 18:19 | 41.42229 | 19.34926 | 9917 ft | 269 kts | 140° |
| 2026-04-23 18:19 | 41.40749 | 19.36401 | 9622 ft | 262 kts | 140° |
| 2026-04-23 18:19 | 41.39302 | 19.37846 | 9353 ft | 258 kts | 139° |
| 2026-04-23 18:19 | 41.37869 | 19.39272 | 9094 ft | 257 kts | 139° |
| 2026-04-23 18:20 | 41.36445 | 19.40694 | 8850 ft | 263 kts | 140° |
| 2026-04-23 18:20 | 41.34949 | 19.42184 | 8579 ft | 274 kts | 140° |
| 2026-04-23 18:20 | 41.33426 | 19.43700 | 8284 ft | 270 kts | 140° |
| 2026-04-23 18:20 | 41.31938 | 19.45174 | 7990 ft | 263 kts | 140° |
| 2026-04-23 18:21 | 41.30494 | 19.46608 | 7712 ft | 256 kts | 139° |
| 2026-04-23 18:21 | 41.29083 | 19.48007 | 7453 ft | 250 kts | 139° |
| 2026-04-23 18:21 | 41.27685 | 19.49397 | 7201 ft | 251 kts | 140° |
| 2026-04-23 18:21 | 41.26272 | 19.50798 | 6949 ft | 257 kts | 139° |
| 2026-04-23 18:22 | 41.24826 | 19.52232 | 6691 ft | 266 kts | 139° |
| 2026-04-23 18:22 | 41.23335 | 19.53709 | 6396 ft | 262 kts | 140° |
| 2026-04-23 18:22 | 41.21894 | 19.55133 | 6109 ft | 255 kts | 140° |
| 2026-04-23 18:22 | 41.20486 | 19.56519 | 5824 ft | 248 kts | 140° |
| 2026-04-23 18:23 | 41.19578 | 19.57415 | 5651 ft | 244 kts | 139° |
| 2026-04-23 18:23 | 41.17388 | 19.61416 | 5085 ft | 235 kts | 90° |
| 2026-04-23 18:24 | 41.17639 | 19.65852 | 4518 ft | 244 kts | 81° |
| 2026-04-23 18:24 | 41.17819 | 19.68030 | 4303 ft | 230 kts | 81° |
| 2026-04-23 18:24 | 41.17982 | 19.70060 | 4177 ft | 212 kts | 81° |
| 2026-04-23 18:25 | 41.18653 | 19.73449 | 3958 ft | 174 kts | 37° |
| 2026-04-23 18:25 | 41.19733 | 19.73928 | 3944 ft | 170 kts | 11° |
| 2026-04-23 18:25 | 41.20902 | 19.74246 | 3695 ft | 169 kts | 11° |
| 2026-04-23 18:25 | 41.22071 | 19.74349 | 3525 ft | 170 kts | 4° |
| 2026-04-23 18:26 | 41.23270 | 19.74354 | 3354 ft | 172 kts | 0° |
| 2026-04-23 18:26 | 41.24468 | 19.74271 | 3142 ft | 171 kts | 358° |
| 2026-04-23 18:26 | 41.25631 | 19.74145 | 2997 ft | 165 kts | 356° |
| 2026-04-23 18:26 | 41.26748 | 19.74007 | 2864 ft | 154 kts | 356° |
| 2026-04-23 18:27 | 41.27790 | 19.73872 | 2786 ft | 146 kts | 356° |
| 2026-04-23 18:27 | 41.28766 | 19.73744 | 2767 ft | 140 kts | 356° |
| 2026-04-23 18:27 | 41.29742 | 19.73615 | 2562 ft | 139 kts | 356° |
| 2026-04-23 18:27 | 41.30693 | 19.73489 | 2354 ft | 134 kts | 354° |
| 2026-04-23 18:28 | 41.31606 | 19.73362 | 2119 ft | 131 kts | 355° |
| 2026-04-23 18:28 | 41.32500 | 19.73244 | 1964 ft | 130 kts | 354° |
| 2026-04-23 18:28 | 41.33410 | 19.73123 | 1762 ft | 131 kts | 354° |
| 2026-04-23 18:28 | 41.34317 | 19.73004 | 1532 ft | 131 kts | 354° |
| 2026-04-23 18:29 | 41.35224 | 19.72892 | 1300 ft | 132 kts | 353° |
| 2026-04-23 18:29 | 41.36135 | 19.72763 | 1138 ft | 133 kts | 352° |
| 2026-04-23 18:29 | 41.37047 | 19.72641 | 948 ft | 131 kts | 354° |
| 2026-04-23 18:29 | 41.37949 | 19.72529 | 721 ft | 127 kts | 352° |
| 2026-04-23 18:30 | 41.38814 | 19.72407 | 534 ft | 123 kts | 353° |
| 2026-04-23 18:30 | 41.39674 | 19.72293 | 333 ft | 127 kts | 352° |
| 2026-04-23 18:30 | 41.40557 | 19.72175 | 138 ft | 125 kts | 354° |
| 2026-04-23 18:30 | 41.41332 | 19.72076 | 124 ft | 87 kts | 355° |
| 2026-04-23 18:31 | 41.41776 | 19.72018 | 121 ft | 55 kts | 354° |
| 2026-04-23 18:31 | 41.41986 | 19.71990 | 119 ft | 11 kts | 354° |
| 2026-04-23 18:31 | 41.42063 | 19.71979 | 118 ft | 11 kts | 354° |
| 2026-04-23 18:31 | 41.42067 | 19.71979 | 118 ft | 0 kts | 354° |
| 2026-04-23 18:32 | 41.42077 | 19.71977 | 117 ft | 4 kts | 354° |
| 2026-04-23 18:32 | 41.42120 | 19.71971 | 118 ft | 9 kts | 354° |
| 2026-04-23 18:32 | 41.42194 | 19.71962 | 117 ft | 12 kts | 354° |
| 2026-04-23 18:32 | 41.42273 | 19.71935 | 119 ft | 12 kts | 314° |
| 2026-04-23 18:33 | 41.42284 | 19.71831 | 119 ft | 12 kts | 264° |
| 2026-04-23 18:33 | 41.42276 | 19.71725 | 116 ft | 11 kts | 263° |
| 2026-04-23 18:33 | 41.42266 | 19.71623 | 119 ft | 11 kts | 262° |
| 2026-04-23 18:33 | 41.42263 | 19.71590 | 116 ft | 0 kts | 262° |
| 2026-04-23 18:34 | 41.42262 | 19.71587 | 116 ft | 1 kts | 262° |
| 2026-04-23 18:34 | 41.42262 | 19.71571 | 117 ft | 2 kts | 272° |
| 2026-04-23 18:34 | 41.42266 | 19.71552 | 120 ft | 2 kts | 292° |
| 2026-04-23 18:35 | 41.42279 | 19.71542 | 118 ft | 2 kts | 338° |
| 2026-04-23 18:35 | 41.42297 | 19.71537 | 119 ft | 3 kts | 350° |
| 2026-04-23 18:35 | 41.42316 | 19.71533 | 117 ft | 3 kts | 352° |
| 2026-04-23 18:35 | 41.42335 | 19.71529 | 119 ft | 3 kts | 352° |
| 2026-04-23 18:36 | 41.42356 | 19.71527 | 117 ft | 4 kts | 354° |
| 2026-04-23 18:36 | 41.42371 | 19.71518 | 117 ft | 2 kts | 328° |
| 2026-04-23 18:36 | 41.42380 | 19.71486 | 119 ft | 5 kts | 278° |
| 2026-04-23 18:36 | 41.42380 | 19.71463 | 119 ft | 0 kts | 269° |